Flight Track Log - Related Links

Times and Time Zones

All times are in EDT time to prevent confusion due to time zone crossing. See the ASQ4209 flight status page for this flight to view local times or setup timezone preferences in your user account.

Time Position Orientation Groundspeed Altitude Reporting Facility
EDT Latitude Longitude Course Direction KTS MPH feet Rate Location/Type
Wed 10:40:22 PM 29.9772 -95.3056 90° East 128 147 500  Level Houston Center
Wed 10:41:41 PM 29.9717 -95.2242 94° East 215 247 3,000 1,920 Climbing Houston Center
Wed 10:42:02 PM 29.9711 -95.1978 91° East 205 236 3,700 1,967 Climbing Houston Center
Wed 10:42:42 PM 29.9719 -95.1372 89° East 265 305 5,000 1,967 Climbing Houston Center
Wed 10:43:00 PM 29.9834 -94.9043 90° East  Level FlightAware Approximate
Wed 10:43:03 PM 29.9739 -95.1103 85° East 266 306 5,700  Level Houston Center
Wed 10:43:31 PM 29.9739 -95.0672 90° East 292 336 6,600 2,066 Climbing Houston Center
Wed 10:44:00 PM 29.9834 -94.7613 90° East  Level FlightAware Approximate
Wed 10:44:04 PM 29.9764 -95.0178 87° East 286 329 7,800  Level Houston Center
Wed 10:44:38 PM 29.9783 -94.9581 88° East 298 343 9,000 2,032 Climbing Houston Center
Wed 10:45:00 PM 29.9833 -94.6182 90° East  Level FlightAware Approximate
Wed 10:45:06 PM 29.9800 -94.9197 87° East 302 348 9,900  Level Houston Center
Wed 10:46:07 PM 29.9828 -94.8153 88° East 321 369 11,000 1,082 Climbing Houston Center
Wed 10:47:08 PM 29.9864 -94.6956 88° East 368 423 12,100 1,180 Climbing Houston Center
Wed 10:48:09 PM 29.9894 -94.5725 88° East 382 440 13,400 1,426 Climbing Houston Center
Wed 10:49:10 PM 29.9931 -94.4342 88° East 391 450 15,000 1,525 Climbing Houston Center
Wed 10:50:11 PM 29.9961 -94.3089 88° East 393 452 16,500 1,377 Climbing Houston Center
Wed 10:51:12 PM 30.0114 -94.1850 82° East 393 452 17,800 1,279 Climbing Houston Center
Wed 10:52:13 PM 30.0267 -94.0606 82° East 392 451 19,100 1,171 Climbing Houston Center
Wed 10:53:15 PM 30.0431 -93.9311 82° East 406 467 20,200 1,073 Climbing Houston Center
Wed 10:54:16 PM 30.0583 -93.7983 82° East 419 482 21,300 1,033 Climbing Houston Center
Wed 10:55:17 PM 30.0747 -93.6631 82° East 428 493 22,300 1,033 Climbing Houston Center
Wed 10:56:18 PM 30.0911 -93.5258 82° East 437 503 23,400 1,131 Climbing Houston Center
Wed 10:57:19 PM 30.1111 -93.3583 82° East 446 513 24,600 1,033 Climbing Houston Center
Wed 10:58:20 PM 30.1272 -93.2172 82° East 449 517 25,500 927 Climbing Houston Center
Wed 10:59:22 PM 30.1578 -93.0772 76° East 463 533 26,500 976 Climbing Houston Center
Wed 11:00:23 PM 30.2239 -92.9539 58° Northeast 457 526 27,500 984 Climbing Houston Center
Wed 11:01:24 PM 30.2914 -92.8297 58° Northeast 460 529 28,500 934 Climbing Houston Center
Wed 11:02:25 PM 30.3603 -92.7039 58° Northeast 464 534 29,400 934 Climbing Houston Center
Wed 11:03:26 PM 30.4297 -92.5761 58° Northeast 469 540 30,400 1,033 Climbing Houston Center
Wed 11:04:27 PM 30.5036 -92.4383 58° Northeast 472 543 31,500 1,024 Climbing Houston Center
Wed 11:05:29 PM 30.5739 -92.3086 58° Northeast 476 548 32,500 732 Climbing Houston Center
Wed 11:06:30 PM 30.6450 -92.1772 58° Northeast 482 555 33,000 246 Climbing Houston Center
Wed 11:07:31 PM 30.7317 -92.0142 58° Northeast 494 568 33,000  Level Houston Center
Wed 11:08:32 PM 30.8067 -91.8739 58° Northeast 508 585 33,000  Level Houston Center
Wed 11:09:33 PM 30.8819 -91.7339 58° Northeast 512 589 33,000  Level Houston Center
Wed 11:10:35 PM 30.9572 -91.5933 58° Northeast 514 592 33,000  Level Houston Center
Wed 11:11:36 PM 31.0319 -91.4525 58° Northeast 514 592 33,000  Level Houston Center
Wed 11:12:37 PM 31.1039 -91.3156 58° Northeast 514 592 33,000  Level Houston Center
Wed 11:13:38 PM 31.1783 -91.1733 59° Northeast 514 592 33,000  Level Houston Center
Wed 11:14:39 PM 31.2508 -91.0314 59° Northeast 511 588 33,000  Level Houston Center
Wed 11:15:40 PM 31.3256 -90.8883 59° Northeast 512 589 33,000  Level Houston Center
Wed 11:16:41 PM 31.4167 -90.7150 58° Northeast 518 596 33,000  Level Houston Center
Wed 11:17:42 PM 31.4897 -90.5714 59° Northeast 516 594 33,000  Level Houston Center
Wed 11:18:43 PM 31.5633 -90.4283 59° Northeast 512 589 33,000  Level Houston Center
Wed 11:19:44 PM 31.6378 -90.2839 59° Northeast 514 592 33,000  Level Houston Center
Wed 11:20:46 PM 31.7103 -90.1394 59° Northeast 514 592 33,000  Level Houston Center
Wed 11:21:47 PM 31.7831 -89.9972 59° Northeast 510 587 33,000  Level Houston Center
Wed 11:22:47 PM 31.8633 -89.8406 59° Northeast 509 586 33,000  Level Houston Center
Wed 11:23:44 PM 31.9250 -89.7186 59° Northeast 513 590 33,000  Level Memphis Center
Wed 11:24:44 PM 31.9950 -89.5758 60° Northeast 508 585 33,000  Level Memphis Center
Wed 11:25:44 PM 32.0692 -89.4331 58° Northeast 508 585 33,000  Level Memphis Center
Wed 11:26:44 PM 32.1472 -89.2753 60° Northeast 508 585 33,000  Level Memphis Center
Wed 11:27:44 PM 32.2169 -89.1344 60° Northeast 508 585 33,000  Level Memphis Center
Wed 11:28:44 PM 32.2886 -88.9911 59° Northeast 508 585 33,000  Level Memphis Center
Wed 11:29:44 PM 32.3600 -88.8472 60° Northeast 508 585 33,000  Level Memphis Center
Wed 11:30:44 PM 32.4419 -88.7156 54° Northeast 503 579 33,000  Level Memphis Center
Wed 11:31:44 PM 32.5319 -88.5881 50° Northeast 496 571 33,000  Level Memphis Center
Wed 11:32:44 PM 32.6178 -88.4606 51° Northeast 496 571 33,000  Level Memphis Center
Wed 11:33:44 PM 32.7075 -88.3328 50° Northeast 496 571 33,000  Level Memphis Center
Wed 11:35:55 PM 32.8961 -88.0514 51° Northeast 499 574 33,000  Level Atlanta Center
Wed 11:36:55 PM 32.9772 -87.9339 51° Northeast 499 574 33,000  Level Atlanta Center
Wed 11:37:55 PM 33.0711 -87.7967 51° Northeast 499 574 33,000  Level Atlanta Center
Wed 11:38:55 PM 33.1564 -87.6664 52° Northeast 499 574 33,000  Level Atlanta Center
Wed 11:39:55 PM 33.2436 -87.5358 51° Northeast 499 574 33,000  Level Atlanta Center
Wed 11:40:55 PM 33.3331 -87.4028 51° Northeast 494 568 33,000  Level Atlanta Center
Wed 11:42:00 PM 33.4129 -87.2791 52° Northeast  Level FlightAware Approximate
Wed 11:42:55 PM 33.5044 -87.1478 52° Northeast 494 568 33,000  Level Atlanta Center
Wed 11:43:55 PM 33.5869 -87.0186 52° Northeast 494 568 33,000  Level Atlanta Center
Wed 11:44:55 PM 33.6736 -86.8919 51° Northeast 494 568 33,000  Level Atlanta Center
Wed 11:45:55 PM 33.7639 -86.7750 47° Northeast 483 556 33,000  Level Atlanta Center
Wed 11:46:55 PM 33.8500 -86.6578 48° Northeast 469 540 33,000  Level Atlanta Center
Wed 11:47:55 PM 33.9400 -86.5378 48° Northeast 469 540 33,000  Level Atlanta Center
Wed 11:48:55 PM 34.0344 -86.4150 47° Northeast 478 550 33,000  Level Atlanta Center
Wed 11:49:55 PM 34.1264 -86.2922 48° Northeast 483 556 33,000  Level Atlanta Center
Wed 11:50:55 PM 34.2161 -86.1714 48° Northeast 483 556 33,000  Level Atlanta Center
Wed 11:51:55 PM 34.3081 -86.0481 48° Northeast 483 556 33,000  Level Atlanta Center
Wed 11:52:55 PM 34.3956 -85.9269 49° Northeast 483 556 33,000  Level Atlanta Center
Wed 11:53:55 PM 34.4722 -85.8253 48° Northeast 483 556 33,000  Level Atlanta Center
Wed 11:54:55 PM 34.5700 -85.6961 47° Northeast 477 549 33,000 -200 Level Atlanta Center
Wed 11:55:55 PM 34.6592 -85.5692 49° Northeast 482 555 32,600 -1,350 Descending Atlanta Center
Wed 11:56:55 PM 34.7483 -85.4469 48° Northeast 482 555 30,300 -2,400 Descending Atlanta Center
Wed 11:57:55 PM 34.8353 -85.3294 48° Northeast 475 547 27,800 -2,450 Descending Atlanta Center
Wed 11:58:55 PM 34.9197 -85.2117 49° Northeast 464 534 25,400 -1,900 Descending Atlanta Center
Wed 11:59:55 PM 35.0064 -85.0936 48° Northeast 464 534 24,000 -700 Descending Atlanta Center
Thu 12:00:55 AM 35.0950 -84.9781 47° Northeast 464 534 24,000 -50 Level Atlanta Center
Thu 12:01:55 AM 35.1792 -84.8672 47° Northeast 459 528 23,900 -1,850 Descending Atlanta Center
Thu 12:02:55 AM 35.2572 -84.7636 47° Northeast 432 497 20,300 -3,600 Descending Atlanta Center
Thu 12:03:55 AM 35.3392 -84.6600 46° Northeast 419 482 16,700 -3,400 Descending Atlanta Center
Thu 12:04:55 AM 35.4147 -84.5586 48° Northeast 409 471 13,500 -2,900 Descending Atlanta Center
Thu 12:05:55 AM 35.4817 -84.4647 49° Northeast 387 445 10,900 -2,150 Descending Atlanta Center
Thu 12:06:55 AM 35.5425 -84.3883 46° Northeast 345 397 9,200 -2,150 Descending Atlanta Center
Thu 12:07:55 AM 35.5908 -84.3094 53° Northeast 304 350 6,600 -1,750 Descending Atlanta Center
Thu 12:08:55 AM 35.6347 -84.2431 51° Northeast 276 318 5,700 -1,000 Descending Atlanta Center
Thu 12:09:55 AM 35.6764 -84.1767 52° Northeast 253 291 4,600 -1,250 Descending Atlanta Center
Thu 12:10:55 AM 35.7142 -84.1128 54° Northeast 241 277 3,200 -1,150 Descending Atlanta Center
Thu 12:11:55 AM 35.7517 -84.0644 46° Northeast 216 249 2,300 -900 Descending Atlanta Center
Thu 12:12:55 AM 35.7850 -84.0258 43° Northeast 181 208 1,400 -650 Descending Atlanta Center
Thu 12:13:55 AM 35.8206 -83.9825 45° Northeast 168 193 1,000 -400 Descending Atlanta Center

Login

Don't have an account? Register now (free) for customized features, flight alerts, and more!